메인 페이지
METAR-TAF:

METAR-TAF

공항 :

쿠웨이트 국제공항

쿠웨이트, 쿠웨이트

위도: 29-13N, 경도: 047-59E, 고도: 55m

현재 날씨관측

예보는 38분 전, 00:00시(UTC)에 발표되었습니다.
남서3kt
온도 6°C
습도 56%
기압 1022 hPa
시정 10km 이상
1500m 미만 상공 구름 및 적란운 없음

METAR: OKBK 250000Z 23003KT CAVOK 06/M02 Q1022 NOSIG

시각: 03:38 (00:38 UTC)

예보

예보는 1 시간 53분 전, 22:45시(UTC)에 발표되었습니다.
예보 대상 시간: 25일 00시부터 26일 06시까지 (UTC)
여러 방향의 바람 3kt
시정: 7000m

TAF: OKBK 242245Z 2500/2606 VRB03KT 7000 NSC

4,000개 이상의 공항 관측 자료 및 예보 (METAR 및 TAF 보고).

지도상에서 검색 가능한 기상관측소가 노란 점과 빨간 점으로 표시되어 있습니다.

기상관측소 명을 보려면 표시 위로 마우스를 이동하세요.

날씨 관측과 예보를 보려면 클릭하세요.

지도 변경 : 확대하려면 엑스 표시가 있는 녹색 버튼, 축소하려면 빼기 표시가 있는 녹색 버튼, 다음 페이지의 지도를 보려면 녹색 화살표를 클릭하세요.


METAR-TAF: